Airport View

Enter AWOS ICAO identifier for current METAR.

ex. KFNL

KMGE 191856Z 33014G20KT 10SM FEW250 07/M09 A3012 RMK AO2A PK WND 30027/14 SLP203 T00701094 $

19 Jan 2020 19:56

Other Area AWOS: KRYY - KFTY - KPDK - KATL

TAF KMGE 191400Z 1914/2020 31015G25KT 9999 SCT080 BKN250 QNH3012INS BECMG 1916/1917 31015G25KT 9999 SCT250 QNH3017INS WND 31012KT AFT 2006 BECMG 2017/2018 31010G15KT 9999 FEW250 QNH3030INS TX10/1921Z TNM02/2012Z